createdAt,value
2019-02-20T00:02:30.003Z,69.67
2019-02-20T00:05:00.382Z,69.65
2019-02-20T00:07:30.734Z,69.73
2019-02-20T00:10:01.031Z,69.70
2019-02-20T00:12:32.142Z,69.36
2019-02-20T00:15:02.426Z,70.06
2019-02-20T00:17:33.991Z,70.55
2019-02-20T00:20:04.877Z,70.65
2019-02-20T00:22:40.309Z,71.04
2019-02-20T00:25:08.044Z,70.93
2019-02-20T00:27:38.392Z,70.59
2019-02-20T00:30:09.001Z,70.59
2019-02-20T00:32:40.846Z,70.87
2019-02-20T00:35:11.201Z,70.90
2019-02-20T00:37:41.479Z,71.21
2019-02-20T00:40:12.319Z,71.26
2019-02-20T00:42:42.855Z,71.30
2019-02-20T00:45:30.751Z,71.19
2019-02-20T00:48:18.330Z,71.39
2019-02-20T00:50:50.838Z,71.30
2019-02-20T00:53:28.304Z,70.87
2019-02-20T00:55:58.950Z,70.56
2019-02-20T00:58:29.305Z,69.87
2019-02-20T01:00:59.993Z,69.01
2019-02-20T01:03:30.408Z,68.34
2019-02-20T01:06:01.643Z,69.13
2019-02-20T01:08:32.361Z,69.42
2019-02-20T01:11:02.923Z,69.99
2019-02-20T01:13:33.646Z,70.57
2019-02-20T01:16:04.411Z,70.48
2019-02-20T01:18:35.024Z,69.56
2019-02-20T01:21:05.517Z,70.08
2019-02-20T01:23:35.881Z,71.30
2019-02-20T01:26:06.645Z,71.94
2019-02-20T01:28:36.929Z,70.80
2019-02-20T01:31:07.632Z,70.87
2019-02-20T01:33:37.910Z,70.65
2019-02-20T01:36:08.846Z,69.78
2019-02-20T01:38:39.495Z,70.41
2019-02-20T01:41:09.829Z,71.01
2019-02-20T01:43:40.227Z,71.71
2019-02-20T01:46:11.170Z,71.71
2019-02-20T01:48:41.481Z,72.15
2019-02-20T01:51:11.926Z,72.49
2019-02-20T01:53:42.574Z,73.07
2019-02-20T01:56:12.923Z,73.19
2019-02-20T01:58:43.211Z,73.26
2019-02-20T02:01:13.876Z,73.35
2019-02-20T02:03:44.205Z,73.08
2019-02-20T02:06:14.992Z,72.88
2019-02-20T02:08:45.263Z,72.66
2019-02-20T02:11:15.953Z,72.89
2019-02-20T02:13:46.697Z,72.70
2019-02-20T02:16:17.010Z,72.94
2019-02-20T02:18:47.300Z,72.71
2019-02-20T02:21:18.168Z,72.79
2019-02-20T02:23:48.662Z,72.81
2019-02-20T02:26:18.992Z,72.69
2019-02-20T02:28:49.668Z,72.42
2019-02-20T02:31:20.232Z,72.25
2019-02-20T02:33:50.544Z,71.74
2019-02-20T02:36:20.966Z,71.64
2019-02-20T02:38:51.261Z,71.42
2019-02-20T02:41:21.992Z,71.39
2019-02-20T02:43:52.507Z,71.45
2019-02-20T02:46:22.886Z,71.55
2019-02-20T02:48:54.839Z,71.98
2019-02-20T02:51:25.608Z,71.70
2019-02-20T02:53:55.881Z,71.38
2019-02-20T02:56:26.559Z,72.43
2019-02-20T02:58:56.932Z,72.79
2019-02-20T03:01:27.389Z,73.55
2019-02-20T03:03:57.713Z,73.60
2019-02-20T03:06:28.024Z,72.66
2019-02-20T03:08:58.658Z,71.77
2019-02-20T03:11:29.330Z,70.60
2019-02-20T03:13:59.620Z,70.80
2019-02-20T03:16:30.307Z,71.07
2019-02-20T03:19:00.986Z,71.30
2019-02-20T03:21:31.324Z,72.15
2019-02-20T03:24:01.749Z,71.77
2019-02-20T03:26:32.430Z,72.15
2019-02-20T03:29:02.702Z,73.01
2019-02-20T03:31:34.085Z,72.25
2019-02-20T03:34:04.674Z,71.55
2019-02-20T03:36:34.981Z,70.62
2019-02-20T03:39:06.555Z,70.73
2019-02-20T03:41:38.693Z,71.32
2019-02-20T03:44:09.155Z,71.72
2019-02-20T03:46:40.158Z,72.05
2019-02-20T03:49:10.494Z,72.38
2019-02-20T03:51:41.017Z,72.97
2019-02-20T03:54:11.682Z,72.72
2019-02-20T03:56:42.046Z,72.95
2019-02-20T03:59:12.353Z,72.54
2019-02-20T04:01:43.001Z,72.10
2019-02-20T04:04:13.443Z,72.27
2019-02-20T04:06:43.800Z,73.69
2019-02-20T04:09:14.447Z,74.81
2019-02-20T04:11:45.127Z,75.37
2019-02-20T04:14:15.577Z,75.80
2019-02-20T04:16:46.467Z,75.18
2019-02-20T04:19:16.865Z,75.46
2019-02-20T04:21:47.175Z,75.56
2019-02-20T04:24:17.625Z,75.95
2019-02-20T04:26:48.303Z,75.10
2019-02-20T04:29:18.575Z,74.46
2019-02-20T04:31:48.900Z,75.13
2019-02-20T04:34:19.271Z,75.54
2019-02-20T04:36:49.633Z,75.09
2019-02-20T04:39:19.918Z,73.60
2019-02-20T04:41:50.548Z,72.82
2019-02-20T04:44:21.005Z,73.89
2019-02-20T04:46:51.735Z,75.03
2019-02-20T04:49:22.018Z,76.94
2019-02-20T04:51:52.623Z,78.07
2019-02-20T04:54:23.278Z,78.56
2019-02-20T04:56:53.606Z,77.96
2019-02-20T04:59:23.871Z,76.75
2019-02-20T05:01:54.290Z,76.26
2019-02-20T05:04:24.638Z,76.53
2019-02-20T05:06:55.379Z,77.09
2019-02-20T05:09:26.099Z,77.31
2019-02-20T05:11:56.939Z,75.47
2019-02-20T05:14:27.236Z,75.76
2019-02-20T05:16:58.713Z,75.83
2019-02-20T05:19:29.080Z,76.64
2019-02-20T05:21:59.850Z,76.50
2019-02-20T05:24:30.405Z,76.29
2019-02-20T05:27:00.808Z,75.80
2019-02-20T05:29:31.421Z,75.06
2019-02-20T05:32:02.000Z,74.50
2019-02-20T05:34:33.307Z,74.94
2019-02-20T05:37:03.860Z,75.45
2019-02-20T05:39:34.259Z,75.34
2019-02-20T05:42:04.682Z,76.22
2019-02-20T05:44:35.037Z,76.51
2019-02-20T05:47:05.370Z,78.45
2019-02-20T05:49:36.053Z,78.90
2019-02-20T05:52:06.727Z,79.11
2019-02-20T05:54:36.993Z,78.87
2019-02-20T05:57:07.699Z,79.06
2019-02-20T05:59:38.069Z,79.17
2019-02-20T06:02:08.368Z,78.97
2019-02-20T06:04:38.765Z,78.77
2019-02-20T06:07:09.355Z,78.07
2019-02-20T06:09:40.619Z,77.70
2019-02-20T06:12:10.953Z,77.16
2019-02-20T06:14:42.585Z,76.35
2019-02-20T06:17:12.892Z,76.32
2019-02-20T06:19:43.912Z,75.97
2019-02-20T06:22:14.366Z,75.25
2019-02-20T06:24:45.290Z,73.77
2019-02-20T06:27:16.054Z,72.33
2019-02-20T06:29:46.386Z,71.82
2019-02-20T06:32:16.691Z,73.01
2019-02-20T06:34:48.682Z,72.60
2019-02-20T06:37:18.995Z,71.63
2019-02-20T06:39:50.262Z,72.11
2019-02-20T06:42:21.094Z,72.21
2019-02-20T06:44:51.783Z,72.31
2019-02-20T06:47:22.076Z,72.35
2019-02-20T06:49:52.619Z,72.67
2019-02-20T06:52:23.011Z,72.64
2019-02-20T06:54:54.361Z,71.17
2019-02-20T06:57:24.853Z,70.34
2019-02-20T06:59:55.183Z,70.52
2019-02-20T07:02:25.738Z,70.37
2019-02-20T07:05:30.116Z,69.79
2019-02-20T07:08:37.887Z,68.76
2019-02-20T07:11:50.968Z,67.59
2019-02-20T07:14:44.228Z,67.06
2019-02-20T07:17:56.330Z,65.77
2019-02-20T07:20:56.830Z,66.43
2019-02-20T07:23:50.032Z,65.74
2019-02-20T07:27:22.328Z,64.70
2019-02-20T07:30:07.383Z,64.11
2019-02-20T07:32:37.665Z,64.20
2019-02-20T07:35:10.126Z,64.06
2019-02-20T07:37:40.549Z,63.89
2019-02-20T07:40:12.479Z,62.66
2019-02-20T07:42:43.110Z,62.36
2019-02-20T07:45:15.292Z,61.66
2019-02-20T07:47:45.931Z,61.02
2019-02-20T07:50:18.600Z,60.00
2019-02-20T07:52:50.152Z,59.64
2019-02-20T07:55:20.486Z,58.47
2019-02-20T07:57:50.953Z,58.96
2019-02-20T08:00:21.314Z,57.81
2019-02-20T08:02:52.058Z,58.48
2019-02-20T08:05:22.627Z,58.19
2019-02-20T08:07:52.941Z,56.73
2019-02-20T08:10:23.697Z,56.73
2019-02-20T08:12:54.384Z,56.29
2019-02-20T08:15:24.746Z,56.74
2019-02-20T08:17:55.169Z,56.91
2019-02-20T08:20:25.736Z,55.79
2019-02-20T08:22:56.085Z,54.87
2019-02-20T08:25:26.395Z,54.83
2019-02-20T08:27:57.061Z,54.70
2019-02-20T08:30:27.467Z,54.43
2019-02-20T08:32:57.838Z,54.04
2019-02-20T08:35:28.753Z,53.03
2019-02-20T08:37:59.078Z,52.79
2019-02-20T08:40:29.388Z,51.98
2019-02-20T08:42:59.925Z,51.69
2019-02-20T08:45:30.870Z,51.66
2019-02-20T08:48:01.152Z,48.89
2019-02-20T08:50:31.920Z,48.87
2019-02-20T08:53:02.568Z,48.62
2019-02-20T08:55:32.878Z,48.16
2019-02-20T08:58:03.325Z,47.73
2019-02-20T09:00:34.187Z,47.37
2019-02-20T09:03:04.484Z,47.06
2019-02-20T09:05:34.940Z,46.58
2019-02-20T09:08:05.211Z,47.12
2019-02-20T09:10:35.619Z,45.98
2019-02-20T09:13:06.297Z,45.44
2019-02-20T09:15:37.671Z,44.99
2019-02-20T09:18:08.077Z,43.66
2019-02-20T09:20:38.762Z,42.47
2019-02-20T09:23:09.178Z,42.63
2019-02-20T09:25:41.789Z,41.76
2019-02-20T09:28:12.061Z,41.67
2019-02-20T09:30:42.382Z,40.53
2019-02-20T09:33:12.666Z,39.67
2019-02-20T09:35:43.525Z,40.48
2019-02-20T09:38:13.866Z,39.82
2019-02-20T09:40:44.293Z,38.82
2019-02-20T09:43:14.571Z,37.19
2019-02-20T09:45:44.945Z,36.50
2019-02-20T09:48:15.575Z,36.51
2019-02-20T09:50:47.703Z,34.49
2019-02-20T09:53:18.060Z,32.69
2019-02-20T09:55:51.822Z,32.67
2019-02-20T09:58:22.066Z,33.64
2019-02-20T10:00:52.394Z,32.43
2019-02-20T10:03:23.083Z,31.59
2019-02-20T10:05:53.729Z,31.35
2019-02-20T10:08:24.069Z,30.67
2019-02-20T10:10:54.381Z,30.12
2019-02-20T10:13:24.667Z,29.28
2019-02-20T10:15:55.331Z,30.01
2019-02-20T10:18:25.881Z,29.20
2019-02-20T10:20:56.253Z,29.51
2019-02-20T10:23:26.891Z,29.75
2019-02-20T10:26:00.784Z,29.75
2019-02-20T10:28:29.589Z,30.30
2019-02-20T10:31:00.288Z,29.56
2019-02-20T10:33:30.970Z,30.03
2019-02-20T10:36:01.287Z,29.32
2019-02-20T10:38:31.709Z,28.92
2019-02-20T10:41:02.500Z,28.66
2019-02-20T10:43:32.781Z,27.95
2019-02-20T10:46:03.289Z,28.57
2019-02-20T10:48:34.026Z,28.72
2019-02-20T10:51:04.357Z,28.61
2019-02-20T10:53:34.660Z,28.30
2019-02-20T10:56:09.496Z,28.26
2019-02-20T10:58:37.632Z,28.47
2019-02-20T11:01:08.186Z,28.75
2019-02-20T11:03:38.747Z,28.58
2019-02-20T11:06:09.321Z,28.09
2019-02-20T11:08:39.681Z,28.15
2019-02-20T11:11:10.385Z,28.31
2019-02-20T11:13:40.734Z,28.65
2019-02-20T11:16:11.239Z,28.36
2019-02-20T11:18:42.687Z,28.29
2019-02-20T11:21:13.155Z,28.01
2019-02-20T11:23:44.925Z,28.59
2019-02-20T11:26:18.384Z,27.30
2019-02-20T11:28:47.949Z,26.90
2019-02-20T11:31:18.611Z,26.57
2019-02-20T11:33:49.416Z,23.59
2019-02-20T11:36:19.741Z,23.96
2019-02-20T11:38:50.282Z,24.63
2019-02-20T11:41:21.115Z,25.49
2019-02-20T11:43:51.382Z,24.14
2019-02-20T11:46:21.921Z,24.39
2019-02-20T11:48:52.231Z,24.31
2019-02-20T11:51:22.960Z,23.24
2019-02-20T11:53:53.761Z,23.19
2019-02-20T11:56:26.610Z,22.99
2019-02-20T11:58:56.259Z,23.07
2019-02-20T12:01:26.826Z,23.92
2019-02-20T12:03:57.119Z,23.49
2019-02-20T12:06:27.541Z,23.69
2019-02-20T12:08:59.300Z,23.68
2019-02-20T12:11:29.614Z,24.46
2019-02-20T12:13:59.948Z,24.86
2019-02-20T12:16:30.606Z,24.86
2019-02-20T12:19:00.996Z,25.85
2019-02-20T12:21:31.784Z,25.31
2019-02-20T12:24:02.070Z,25.35
2019-02-20T12:26:35.165Z,25.48
2019-02-20T12:29:05.216Z,25.71
2019-02-20T12:31:35.579Z,25.37
2019-02-20T12:34:05.867Z,26.15
2019-02-20T12:36:36.592Z,25.50
2019-02-20T12:39:07.139Z,25.30
2019-02-20T12:41:40.318Z,24.75
2019-02-20T12:44:10.706Z,24.68
2019-02-20T12:46:41.117Z,24.70
2019-02-20T12:49:11.778Z,25.13
2019-02-20T12:51:42.423Z,24.13
2019-02-20T12:54:12.918Z,22.95
2019-02-20T12:56:44.223Z,22.81
2019-02-20T12:59:15.979Z,23.86
2019-02-20T13:01:46.877Z,24.28
2019-02-20T13:04:17.155Z,24.40
2019-02-20T13:06:47.530Z,23.76
2019-02-20T13:09:20.506Z,24.22
2019-02-20T13:11:50.878Z,23.66
2019-02-20T13:14:21.204Z,23.10
2019-02-20T13:16:51.933Z,23.73
2019-02-20T13:19:22.254Z,23.66
2019-02-20T13:21:52.697Z,23.61
2019-02-20T13:24:23.002Z,23.76
2019-02-20T13:26:53.438Z,24.04
2019-02-20T13:29:24.126Z,23.02
2019-02-20T13:31:54.459Z,23.62
2019-02-20T13:34:24.846Z,23.76
2019-02-20T13:36:55.687Z,23.22
2019-02-20T13:39:26.190Z,23.37
2019-02-20T13:41:56.608Z,22.91
2019-02-20T13:44:27.214Z,22.70
2019-02-20T13:46:57.814Z,22.82
2019-02-20T13:49:28.083Z,22.99
2019-02-20T13:51:59.586Z,23.40
2019-02-20T13:54:29.910Z,22.69
2019-02-20T13:57:02.142Z,22.90
2019-02-20T13:59:32.947Z,23.36
2019-02-20T14:02:03.261Z,22.61
2019-02-20T14:04:34.707Z,23.00
2019-02-20T14:07:05.479Z,22.73
2019-02-20T14:09:35.771Z,23.05
2019-02-20T14:12:07.221Z,23.74
2019-02-20T14:14:38.581Z,23.98
2019-02-20T14:17:09.000Z,24.58
2019-02-20T14:19:39.347Z,24.83
2019-02-20T14:22:09.950Z,25.41
2019-02-20T14:24:40.352Z,26.68
2019-02-20T14:27:11.379Z,26.55
2019-02-20T14:29:41.769Z,27.26
2019-02-20T14:32:12.439Z,28.24
2019-02-20T14:34:43.161Z,29.10
2019-02-20T14:37:13.562Z,29.09
2019-02-20T14:39:44.094Z,29.53
2019-02-20T14:42:15.339Z,29.90
2019-02-20T14:44:45.649Z,30.10
2019-02-20T14:47:16.090Z,30.10
2019-02-20T14:49:46.728Z,30.59
2019-02-20T14:52:18.623Z,31.02
2019-02-20T14:54:50.070Z,31.27
2019-02-20T14:57:20.807Z,31.41
2019-02-20T14:59:51.298Z,31.41
2019-02-20T15:02:22.097Z,31.87
2019-02-20T15:04:52.433Z,32.19
2019-02-20T15:07:22.784Z,31.85
2019-02-20T15:09:54.169Z,32.48
2019-02-20T15:12:24.563Z,33.09
2019-02-20T15:14:54.846Z,33.04
2019-02-20T15:17:25.428Z,32.42
2019-02-20T15:19:55.797Z,33.74
2019-02-20T15:22:26.086Z,33.58
2019-02-20T15:24:57.111Z,33.52
2019-02-20T15:27:28.850Z,33.89
2019-02-20T15:29:59.616Z,34.23
2019-02-20T15:32:30.076Z,33.85
2019-02-20T15:35:00.368Z,33.86
2019-02-20T15:37:31.084Z,33.53
2019-02-20T15:40:01.595Z,33.49
2019-02-20T15:42:32.982Z,34.46
2019-02-20T15:45:03.623Z,34.66
2019-02-20T15:47:34.030Z,36.38
2019-02-20T15:50:04.464Z,36.29
2019-02-20T15:52:35.149Z,36.44
2019-02-20T15:55:06.349Z,36.56
2019-02-20T15:57:38.340Z,37.02
2019-02-20T16:00:11.373Z,37.50
2019-02-20T16:02:41.755Z,37.42
2019-02-20T16:05:12.674Z,38.42
2019-02-20T16:07:43.378Z,38.25
2019-02-20T16:10:13.763Z,38.21
2019-02-20T16:12:44.491Z,38.59
2019-02-20T16:15:15.003Z,38.69
2019-02-20T16:17:45.499Z,38.70
2019-02-20T16:20:16.150Z,39.71
2019-02-20T16:22:46.572Z,39.61
2019-02-20T16:25:16.880Z,39.92
2019-02-20T16:27:47.861Z,40.00
2019-02-20T16:30:18.780Z,40.88
2019-02-20T16:32:49.085Z,40.20
2019-02-20T16:35:19.635Z,40.25
2019-02-20T16:37:50.044Z,40.81
2019-02-20T16:40:20.642Z,40.64
2019-02-20T16:42:51.389Z,41.57
2019-02-20T16:45:23.476Z,41.99
2019-02-20T16:47:54.382Z,41.90
2019-02-20T16:50:24.760Z,41.93
2019-02-20T16:52:55.074Z,42.32
2019-02-20T16:55:25.480Z,42.33
2019-02-20T16:57:57.200Z,42.04
2019-02-20T17:00:28.804Z,42.74
2019-02-20T17:02:59.137Z,42.40
2019-02-20T17:05:30.039Z,43.03
2019-02-20T17:08:00.854Z,43.44
2019-02-20T17:10:31.139Z,43.25
2019-02-20T17:13:02.000Z,43.61
2019-02-20T17:15:33.137Z,43.62
2019-02-20T17:18:03.458Z,44.14
2019-02-20T17:20:33.808Z,44.18
2019-02-20T17:23:04.560Z,44.50
2019-02-20T17:25:34.873Z,44.58
2019-02-20T17:28:06.144Z,45.17
2019-02-20T17:30:36.926Z,45.14
2019-02-20T17:33:07.248Z,45.06
2019-02-20T17:35:37.623Z,45.28
2019-02-20T17:38:08.446Z,45.11
2019-02-20T17:40:38.949Z,45.17
2019-02-20T17:43:10.154Z,45.35
2019-02-20T17:45:40.445Z,45.32
2019-02-20T17:48:10.780Z,45.36
2019-02-20T17:50:41.365Z,45.55
2019-02-20T17:53:11.674Z,45.54
2019-02-20T17:55:42.804Z,45.49
2019-02-20T17:58:15.452Z,45.52
2019-02-20T18:00:46.467Z,45.83
2019-02-20T18:03:16.799Z,46.04
2019-02-20T18:05:47.515Z,46.08
2019-02-20T18:08:18.365Z,46.31
2019-02-20T18:10:48.701Z,46.37
2019-02-20T18:13:19.735Z,46.33
2019-02-20T18:15:50.182Z,46.29
2019-02-20T18:18:20.602Z,46.25
2019-02-20T18:20:50.902Z,46.11
2019-02-20T18:23:21.279Z,46.24
2019-02-20T18:25:51.962Z,46.43
2019-02-20T18:28:24.705Z,46.92
2019-02-20T18:30:54.721Z,47.24
2019-02-20T18:33:25.395Z,46.76
2019-02-20T18:35:56.183Z,47.19
2019-02-20T18:38:26.445Z,47.52
2019-02-20T18:40:56.885Z,47.85
2019-02-20T18:43:33.351Z,47.75
2019-02-20T18:46:04.202Z,47.86
2019-02-20T18:48:34.915Z,47.74
2019-02-20T18:51:05.217Z,48.08
2019-02-20T18:53:36.050Z,48.02
2019-02-20T18:56:06.721Z,48.73
2019-02-20T18:58:37.062Z,48.63
2019-02-20T19:01:07.586Z,48.76
2019-02-20T19:03:38.362Z,48.45
2019-02-20T19:06:08.730Z,48.66
2019-02-20T19:08:41.897Z,49.04
2019-02-20T19:11:20.474Z,49.68
2019-02-20T19:14:30.955Z,49.50
2019-02-20T19:17:33.134Z,49.52
2019-02-20T19:20:28.471Z,50.04
2019-02-20T19:23:37.548Z,49.62
2019-02-20T19:26:33.011Z,49.47
2019-02-20T19:29:57.535Z,49.74
2019-02-20T19:33:23.751Z,49.98
2019-02-20T19:36:37.763Z,50.37
2019-02-20T19:39:43.711Z,50.50
2019-02-20T19:42:48.349Z,51.06
2019-02-20T19:46:00.356Z,50.72
2019-02-20T19:49:05.199Z,51.21
2019-02-20T19:52:28.495Z,51.01
2019-02-20T19:55:20.330Z,50.85
2019-02-20T19:58:27.631Z,50.85
2019-02-20T20:01:44.641Z,51.04
2019-02-20T20:04:50.136Z,51.03
2019-02-20T20:07:48.968Z,51.65
2019-02-20T20:10:44.527Z,51.83
2019-02-20T20:13:45.570Z,51.21
2019-02-20T20:16:44.643Z,51.93
2019-02-20T20:19:59.122Z,51.87
2019-02-20T20:22:48.663Z,52.07
2019-02-20T20:25:27.832Z,52.06
2019-02-20T20:28:35.580Z,52.37
2019-02-20T20:31:53.170Z,52.43
2019-02-20T20:34:58.337Z,53.10
2019-02-20T20:37:45.973Z,52.96
2019-02-20T20:40:54.351Z,53.11
2019-02-20T20:44:07.586Z,53.16
2019-02-20T20:46:46.964Z,52.93
2019-02-20T20:49:49.233Z,53.08
2019-02-20T20:53:03.082Z,53.54
2019-02-20T20:56:13.581Z,54.20
2019-02-20T20:59:17.611Z,53.54
2019-02-20T21:02:10.028Z,52.95
2019-02-20T21:05:29.662Z,53.26
2019-02-20T21:08:23.146Z,53.14
2019-02-20T21:11:21.417Z,53.00
2019-02-20T21:14:35.672Z,52.57
2019-02-20T21:17:42.576Z,52.26
2019-02-20T21:20:51.722Z,52.39
2019-02-20T21:24:01.917Z,51.82
2019-02-20T21:27:08.826Z,52.00
2019-02-20T21:30:19.199Z,51.96
2019-02-20T21:33:41.723Z,51.81
2019-02-20T21:36:44.151Z,51.73
2019-02-20T21:39:28.886Z,52.02
2019-02-20T21:42:36.981Z,51.41
2019-02-20T21:45:40.285Z,51.64
2019-02-20T21:48:48.675Z,51.01
2019-02-20T21:52:06.623Z,50.39
2019-02-20T21:54:58.098Z,50.65
2019-02-20T21:58:05.317Z,50.20
2019-02-20T22:00:52.699Z,49.47
2019-02-20T22:04:03.928Z,49.64
2019-02-20T22:06:56.422Z,48.88
2019-02-20T22:10:13.674Z,48.52
2019-02-20T22:13:12.689Z,48.60
2019-02-20T22:15:58.879Z,48.48
2019-02-20T22:19:12.742Z,48.17
2019-02-20T22:22:37.799Z,47.94
2019-02-20T22:25:47.607Z,48.00
2019-02-20T22:28:34.442Z,47.89
2019-02-20T22:31:37.198Z,47.91
2019-02-20T22:34:29.746Z,47.87
2019-02-20T22:37:38.019Z,47.81
2019-02-20T22:40:31.443Z,48.25
2019-02-20T22:43:27.682Z,48.05
2019-02-20T22:46:57.169Z,47.98
2019-02-20T22:49:56.595Z,48.07
2019-02-20T22:52:38.011Z,48.10
2019-02-20T22:55:34.838Z,48.24
2019-02-20T22:58:33.162Z,48.14
2019-02-20T23:01:34.570Z,47.67
2019-02-20T23:04:31.944Z,47.82
2019-02-20T23:07:33.015Z,48.41
2019-02-20T23:10:34.902Z,48.41
2019-02-20T23:13:51.070Z,48.46
2019-02-20T23:16:21.484Z,48.25
2019-02-20T23:18:51.813Z,48.43
2019-02-20T23:21:22.309Z,48.86
2019-02-20T23:23:53.890Z,48.66
2019-02-20T23:26:24.614Z,48.79
2019-02-20T23:28:54.995Z,48.83
2019-02-20T23:31:25.843Z,48.99
2019-02-20T23:33:56.536Z,48.87
2019-02-20T23:36:26.848Z,49.20
2019-02-20T23:38:57.536Z,49.49
2019-02-20T23:41:27.909Z,49.82
2019-02-20T23:43:58.235Z,49.78
2019-02-20T23:46:28.705Z,50.08
2019-02-20T23:48:59.031Z,49.84
2019-02-20T23:51:29.718Z,50.69
2019-02-20T23:54:00.374Z,49.82
2019-02-20T23:56:30.678Z,49.49
2019-02-20T23:59:01.447Z,49.82
